Главная страница
METAR-TAF:

METAR-TAF

Аэропорты :

Шуанлю

Чэнду, Китай

широта: 30-40N, долгота: 104-01E, высота над уровнем моря: 508 м

Текущие метеонаблюдения

Эта сводка был подготовлена 37 минут назад, в 00:00 UTC
Штиль
Температура 6°C
Влажность 87%
Давление 1030 hPa
Видимость: 3300 м
Отдельные облака на высоте 4000 фута
дымка

METAR: ZUUU 140000Z 00000MPS 3300 BR SCT040 06/04 Q1030 NOSIG

Время: 08:37 (00:37 UTC)

Прогноз

Эта сводка был подготовлена 4 часа и 27 минут назад, в 20:10 UTC
Прогноз действительный с 14-го 00 UTC до 14-го 24 UTC
Ветер 6 Узел от северо-северо-восточный
Видимость: 5000 м
Отдельные облака на высоте 5000 фута
дымка
временами
С 14-го 14 UTC до 14-го 18 UTC
небольшой дождь

TAF: ZUUU 132010Z 1400/1424 02003MPS 5000 BR SCT050 TX09/1407Z TN06/1423Z TEMPO 1414/1418 -RA

Метеонаблюдения и прогнозы для более 4000 аэропортов (сводки METAR и TAF).

Имеющиеся станции представлены на карте желтыми и красными точками.

Чтобы увидеть название станции, наведите на нее мышь.

Затем щелкните, чтобы увидеть метеонаблюдения и метеопрогнозы.

Управление картой: чтобы увеличить масштаб, щелкните зеленые кнопки с черным крестиком; чтобы уменьшить масштаб, щелкните зеленую кнопку с тире; для просмотра соседних карт щелкайте зеленые стрелки.


METAR-TAF: